Time;durP1;ratioP1;P1;durP2;ratioP2;P2;SDS_P1;SDS_P2;PMS_P1;PMS_P2;Temp;Humidity;BMP_temperature;BMP_pressure;BME280_temperature;BME280_humidity;BME280_pressure;Samples;Min_cycle;Max_cycle;Signal;HPM_P1;HPM_P2
2023/12/12 00:00:20;;;;;;;8.07;7.45;;;3.90;99.90;;;;;;5118199;28;20118;-76
2023/12/12 00:02:45;;;;;;;7.82;7.15;;;3.60;99.90;;;;;;5103600;28;20046;-76
2023/12/12 00:05:13;;;;;;;8.00;7.20;;;3.50;99.90;;;;;;5119112;28;20063;-76
2023/12/12 00:07:39;;;;;;;7.78;7.20;;;3.50;99.90;;;;;;5120075;28;20051;-76
2023/12/12 00:10:05;;;;;;;8.45;7.85;;;3.40;99.90;;;;;;5121768;28;20046;-76
2023/12/12 00:12:31;;;;;;;8.40;7.55;;;3.30;99.90;;;;;;5122330;28;20101;-76
2023/12/12 00:14:57;;;;;;;8.82;8.13;;;3.30;99.90;;;;;;5125893;28;20103;-76
2023/12/12 00:17:23;;;;;;;8.63;8.02;;;3.30;99.90;;;;;;5105009;28;20070;-77
2023/12/12 00:19:48;;;;;;;8.60;8.10;;;3.30;99.90;;;;;;5123686;28;20042;-77
2023/12/12 00:22:14;;;;;;;8.93;8.18;;;3.40;99.90;;;;;;5105119;28;20431;-77
2023/12/12 00:24:40;;;;;;;9.73;8.90;;;3.30;99.90;;;;;;5124141;28;20078;-77
2023/12/12 00:27:06;;;;;;;9.52;8.90;;;3.40;99.90;;;;;;5106232;28;20130;-77
2023/12/12 00:29:35;;;;;;;9.75;8.90;;;3.50;99.90;;;;;;5123068;28;20047;-77
2023/12/12 00:32:02;;;;;;;8.80;8.20;;;3.40;99.90;;;;;;5123206;28;20039;-77
2023/12/12 00:34:28;;;;;;;9.23;8.73;;;3.40;99.90;;;;;;5122494;28;20078;-76
2023/12/12 00:36:53;;;;;;;10.13;9.43;;;3.40;99.90;;;;;;5123818;28;20119;-76
2023/12/12 00:39:19;;;;;;;9.00;8.48;;;3.40;99.90;;;;;;5123019;27;20031;-76
2023/12/12 00:41:45;;;;;;;9.38;8.65;;;3.40;99.90;;;;;;5123244;28;20063;-76
2023/12/12 00:44:11;;;;;;;8.38;7.70;;;2.70;99.90;;;;;;5121906;28;20047;-76
2023/12/12 00:46:36;;;;;;;8.23;7.72;;;3.60;99.90;;;;;;5122103;28;20054;-76
2023/12/12 00:49:02;;;;;;;8.40;7.85;;;3.40;99.90;;;;;;5123664;28;20039;-75
2023/12/12 00:51:30;;;;;;;8.40;7.80;;;3.30;99.90;;;;;;5121615;28;20366;-75
2023/12/12 00:53:56;;;;;;;8.68;7.78;;;3.30;99.90;;;;;;5123472;28;20501;-75
2023/12/12 00:56:22;;;;;;;8.60;7.97;;;3.30;99.90;;;;;;5104310;28;20043;-76
2023/12/12 00:58:47;;;;;;;8.57;7.90;;;3.50;99.90;;;;;;5123477;28;20083;-76
2023/12/12 01:01:16;;;;;;;7.95;7.47;;;3.30;99.90;;;;;;5122049;28;20054;-76
2023/12/12 01:03:41;;;;;;;8.73;7.80;;;3.30;99.90;;;;;;5123580;28;20089;-76
2023/12/12 01:06:07;;;;;;;8.25;7.55;;;3.20;99.90;;;;;;5123233;28;20052;-76
2023/12/12 01:08:33;;;;;;;9.25;8.40;;;3.10;99.90;;;;;;5122643;28;20043;-76
2023/12/12 01:10:59;;;;;;;9.13;8.38;;;3.10;99.90;;;;;;5105240;28;20777;-76
2023/12/12 01:13:25;;;;;;;8.82;8.20;;;3.30;99.90;;;;;;5120576;28;20184;-76
2023/12/12 01:15:50;;;;;;;9.43;8.93;;;3.10;99.90;;;;;;5122930;28;20051;-77
2023/12/12 01:18:16;;;;;;;9.85;8.90;;;3.10;99.90;;;;;;5123263;28;20135;-76
2023/12/12 01:20:42;;;;;;;9.55;8.70;;;3.10;99.90;;;;;;5105172;28;20363;-76
2023/12/12 01:23:07;;;;;;;8.73;8.23;;;3.10;99.90;;;;;;5123687;28;20043;-75
2023/12/12 01:25:33;;;;;;;9.57;8.82;;;3.10;99.90;;;;;;5121022;28;20095;-75
2023/12/12 01:27:59;;;;;;;9.50;8.55;;;3.40;99.90;;;;;;5123090;28;20079;-75
2023/12/12 01:30:25;;;;;;;9.48;8.98;;;3.20;99.90;;;;;;5119391;28;20096;-76
2023/12/12 01:32:50;;;;;;;9.13;8.40;;;3.30;99.90;;;;;;5121887;28;20051;-76
2023/12/12 01:35:16;;;;;;;8.93;8.25;;;3.20;99.90;;;;;;5119321;28;20047;-76
2023/12/12 01:37:42;;;;;;;9.63;8.90;;;3.40;99.90;;;;;;5121634;28;20139;-76
2023/12/12 01:40:08;;;;;;;9.85;9.10;;;3.10;99.90;;;;;;5122421;28;20067;-75
2023/12/12 01:42:34;;;;;;;10.25;9.07;;;3.10;99.90;;;;;;5120597;28;20060;-76
2023/12/12 01:44:59;;;;;;;9.70;8.77;;;3.10;99.90;;;;;;5105677;28;20108;-76
2023/12/12 01:47:26;;;;;;;9.15;8.23;;;3.20;99.90;;;;;;5121467;28;20058;-76
2023/12/12 01:49:53;;;;;;;8.75;8.00;;;3.30;99.90;;;;;;5121343;28;20047;-76
2023/12/12 01:52:21;;;;;;;9.40;8.50;;;3.10;99.90;;;;;;5120861;28;20047;-75
2023/12/12 01:54:49;;;;;;;10.00;9.00;;;3.00;99.90;;;;;;5121717;28;20052;-76
2023/12/12 01:57:16;;;;;;;9.23;8.63;;;3.30;99.90;;;;;;5123174;28;20039;-76
2023/12/12 01:59:46;;;;;;;9.82;9.05;;;3.00;99.90;;;;;;5103032;28;20035;-76
2023/12/12 02:02:14;;;;;;;9.70;8.88;;;3.00;99.90;;;;;;5121903;28;20038;-76
2023/12/12 02:04:39;;;;;;;10.13;9.10;;;3.00;99.90;;;;;;5120032;28;20054;-77
2023/12/12 02:07:06;;;;;;;10.30;9.40;;;2.90;99.90;;;;;;5122204;28;20044;-76
2023/12/12 02:09:32;;;;;;;10.77;9.60;;;2.90;99.90;;;;;;5104063;28;20047;-76
2023/12/12 02:11:58;;;;;;;10.65;9.80;;;3.30;99.90;;;;;;5121810;28;20388;-76
2023/12/12 02:14:24;;;;;;;10.88;9.98;;;2.90;99.90;;;;;;5121488;28;20046;-77
2023/12/12 02:16:50;;;;;;;15.07;9.52;;;3.40;99.90;;;;;;5120244;28;20079;-76
2023/12/12 02:19:17;;;;;;;10.13;9.32;;;2.90;99.90;;;;;;5121713;28;20051;-76
2023/12/12 02:21:42;;;;;;;10.68;9.88;;;2.90;99.90;;;;;;5121303;28;20031;-76
2023/12/12 02:24:08;;;;;;;10.70;9.90;;;2.90;99.90;;;;;;5121315;28;20046;-77
2023/12/12 02:26:34;;;;;;;10.07;9.25;;;2.90;99.90;;;;;;5119147;28;20043;-76
2023/12/12 02:29:00;;;;;;;10.43;9.60;;;2.90;99.90;;;;;;5121817;28;20040;-76
2023/12/12 02:31:26;;;;;;;10.43;9.63;;;3.10;99.90;;;;;;5120587;28;20053;-76
2023/12/12 02:33:51;;;;;;;10.95;9.95;;;2.90;99.90;;;;;;5119919;28;20060;-77
2023/12/12 02:36:17;;;;;;;11.00;10.20;;;2.90;99.90;;;;;;5121355;28;20055;-76
2023/12/12 02:38:43;;;;;;;12.18;11.20;;;2.90;99.90;;;;;;5119997;28;20456;-76
2023/12/12 02:41:08;;;;;;;13.90;12.68;;;3.00;99.90;;;;;;5121424;28;20078;-76
2023/12/12 02:43:37;;;;;;;13.38;12.48;;;3.00;99.90;;;;;;5119732;28;20118;-76
2023/12/12 02:46:03;;;;;;;12.95;11.95;;;3.00;99.90;;;;;;5104225;28;20118;-77
2023/12/12 02:48:28;;;;;;;12.93;12.13;;;3.10;99.90;;;;;;5120757;28;20380;-76
2023/12/12 02:50:54;;;;;;;13.68;12.68;;;3.00;99.90;;;;;;5120478;28;20396;-77
2023/12/12 02:53:20;;;;;;;13.55;12.57;;;3.20;99.90;;;;;;5121265;28;20066;-76
2023/12/12 02:55:45;;;;;;;14.98;13.77;;;3.10;99.90;;;;;;5119616;28;20043;-76
2023/12/12 02:58:11;;;;;;;15.55;14.10;;;3.20;99.90;;;;;;5121677;28;20130;-76
2023/12/12 03:00:37;;;;;;;13.82;13.00;;;3.10;99.90;;;;;;5119077;28;20069;-76
2023/12/12 03:03:02;;;;;;;14.50;13.07;;;3.30;99.90;;;;;;5087019;28;20051;-76
2023/12/12 03:05:28;;;;;;;13.35;12.27;;;3.20;99.90;;;;;;5120054;28;20040;-76
2023/12/12 03:07:54;;;;;;;14.75;13.48;;;3.20;99.90;;;;;;5120767;28;20051;-76
2023/12/12 03:10:19;;;;;;;14.50;13.38;;;3.30;99.90;;;;;;5122696;28;20039;-76
2023/12/12 03:12:45;;;;;;;14.35;12.95;;;3.30;99.90;;;;;;5120115;28;20062;-76
2023/12/12 03:15:11;;;;;;;15.45;14.35;;;3.20;99.90;;;;;;5103973;28;20934;-76
2023/12/12 03:17:37;;;;;;;13.60;12.48;;;3.20;99.90;;;;;;5119254;28;20048;-77
2023/12/12 03:20:03;;;;;;;16.25;14.77;;;3.20;99.90;;;;;;5102869;28;20058;-77
2023/12/12 03:22:29;;;;;;;14.63;13.43;;;3.20;99.90;;;;;;5119092;28;20582;-76
2023/12/12 03:24:55;;;;;;;15.90;14.60;;;3.20;99.90;;;;;;5119507;28;20070;-76
2023/12/12 03:27:21;;;;;;;14.82;13.82;;;3.10;99.90;;;;;;5121486;28;20047;-76
2023/12/12 03:29:46;;;;;;;14.55;13.50;;;3.10;99.90;;;;;;5118954;28;20045;-77
2023/12/12 03:32:12;;;;;;;14.50;13.35;;;3.10;99.90;;;;;;5121243;28;20051;-76
2023/12/12 03:34:37;;;;;;;14.95;13.63;;;3.10;99.90;;;;;;5102217;28;20043;-77
2023/12/12 03:37:03;;;;;;;17.13;15.68;;;3.90;99.90;;;;;;5121345;28;20043;-76
2023/12/12 03:39:29;;;;;;;16.35;14.95;;;3.00;99.90;;;;;;5119338;28;20560;-76
2023/12/12 03:41:55;;;;;;;16.25;14.95;;;3.10;99.90;;;;;;5103308;28;20098;-76
2023/12/12 03:44:20;;;;;;;17.52;15.80;;;3.10;99.90;;;;;;5122167;28;20096;-76
2023/12/12 03:46:46;;;;;;;17.83;16.52;;;3.10;99.90;;;;;;5121078;28;20048;-75
2023/12/12 03:49:12;;;;;;;18.55;16.95;;;3.20;99.90;;;;;;5091485;28;20044;-76
2023/12/12 03:51:38;;;;;;;20.40;18.40;;;3.20;99.90;;;;;;5106667;28;20103;-76
2023/12/12 03:54:04;;;;;;;21.15;19.40;;;3.30;99.90;;;;;;5125017;28;20047;-76
2023/12/12 03:56:29;;;;;;;19.65;18.02;;;3.40;99.90;;;;;;5106709;28;20044;-76
2023/12/12 03:58:58;;;;;;;19.35;17.92;;;3.50;99.90;;;;;;5124720;28;20506;-76
2023/12/12 04:01:23;;;;;;;19.77;18.33;;;3.60;99.90;;;;;;5124306;28;20047;-76
2023/12/12 04:03:49;;;;;;;19.65;18.17;;;3.60;99.90;;;;;;5123459;28;20050;-76
2023/12/12 04:06:15;;;;;;;20.10;18.60;;;3.70;99.90;;;;;;5108038;28;20047;-76
2023/12/12 04:08:40;;;;;;;20.00;18.40;;;3.70;99.90;;;;;;5122922;28;20099;-76
2023/12/12 04:11:06;;;;;;;20.98;19.52;;;3.70;99.90;;;;;;5126450;28;20243;-76
2023/12/12 04:13:32;;;;;;;20.80;18.98;;;3.70;99.90;;;;;;5122442;28;20104;-76
2023/12/12 04:15:57;;;;;;;20.73;19.05;;;3.80;99.90;;;;;;5124417;28;20104;-76
2023/12/12 04:18:23;;;;;;;22.17;20.35;;;3.80;99.90;;;;;;5125111;28;20048;-76
2023/12/12 04:20:49;;;;;;;23.27;21.30;;;3.80;99.90;;;;;;5122869;28;20039;-76
2023/12/12 04:23:14;;;;;;;24.30;22.25;;;3.90;99.90;;;;;;5124755;28;20047;-76
2023/12/12 04:25:41;;;;;;;23.00;21.02;;;4.20;99.90;;;;;;5088423;28;20662;-76
2023/12/12 04:28:07;;;;;;;22.35;20.67;;;4.00;99.90;;;;;;5124647;28;20126;-76
2023/12/12 04:30:33;;;;;;;22.00;20.00;;;4.00;99.90;;;;;;5122458;28;20044;-76
2023/12/12 04:32:59;;;;;;;23.88;22.17;;;4.00;99.90;;;;;;5124314;28;20078;-76
2023/12/12 04:35:24;;;;;;;22.23;20.48;;;4.20;99.90;;;;;;5123759;28;20565;-76
2023/12/12 04:37:50;;;;;;;24.63;22.63;;;4.10;99.90;;;;;;5089770;28;20075;-76
2023/12/12 04:40:16;;;;;;;23.50;21.25;;;4.20;99.90;;;;;;5107140;28;20047;-75
2023/12/12 04:42:42;;;;;;;21.10;19.40;;;4.20;99.90;;;;;;5122342;28;20040;-76
2023/12/12 04:45:08;;;;;;;19.02;17.48;;;4.20;99.90;;;;;;5124264;28;20103;-76
2023/12/12 04:47:34;;;;;;;18.77;17.23;;;4.10;99.90;;;;;;5122276;28;20103;-77
2023/12/12 04:49:59;;;;;;;21.05;19.50;;;4.10;99.90;;;;;;5124083;28;20067;-76
2023/12/12 04:52:25;;;;;;;21.58;19.92;;;3.90;99.90;;;;;;5124125;28;20074;-76
2023/12/12 04:54:51;;;;;;;21.98;20.30;;;3.90;99.90;;;;;;5123162;28;20052;-77
2023/12/12 04:57:16;;;;;;;22.77;21.05;;;3.90;99.90;;;;;;5123076;28;20062;-77
2023/12/12 04:59:42;;;;;;;23.65;21.77;;;3.80;99.90;;;;;;5121860;28;20042;-77
2023/12/12 05:02:08;;;;;;;24.00;22.40;;;3.70;99.90;;;;;;5106897;28;20055;-77
2023/12/12 05:04:35;;;;;;;23.58;21.92;;;3.80;99.90;;;;;;5105109;28;20071;-77
2023/12/12 05:07:01;;;;;;;26.25;23.77;;;3.80;99.90;;;;;;5107188;28;20122;-76
2023/12/12 05:09:27;;;;;;;23.88;21.95;;;3.80;99.90;;;;;;5123809;28;20078;-76
2023/12/12 05:11:52;;;;;;;24.13;22.65;;;3.80;99.90;;;;;;5124478;28;20039;-75
2023/12/12 05:14:18;;;;;;;25.23;23.30;;;3.80;99.90;;;;;;5122939;28;20057;-77
2023/12/12 05:16:44;;;;;;;25.25;23.40;;;4.00;99.90;;;;;;5104814;28;20051;-76
2023/12/12 05:19:09;;;;;;;23.92;22.17;;;3.90;99.90;;;;;;5123285;28;20047;-77
2023/12/12 05:21:35;;;;;;;24.92;22.80;;;3.90;99.90;;;;;;5121326;28;20048;-77
2023/12/12 05:24:01;;;;;;;27.08;23.42;;;3.90;99.90;;;;;;5123699;28;20055;-77
2023/12/12 05:26:27;;;;;;;25.50;23.33;;;3.80;99.90;;;;;;5122962;28;20040;-77
2023/12/12 05:28:53;;;;;;;25.35;23.23;;;3.90;99.90;;;;;;5124632;28;20039;-77
2023/12/12 05:31:19;;;;;;;25.88;24.08;;;3.90;99.90;;;;;;5122756;28;20078;-77
2023/12/12 05:33:46;;;;;;;26.40;24.35;;;3.90;99.90;;;;;;5121609;28;20121;-78
2023/12/12 05:36:12;;;;;;;25.73;23.83;;;4.00;99.90;;;;;;5122602;28;20044;-77
2023/12/12 05:38:37;;;;;;;26.50;24.70;;;4.00;99.90;;;;;;5104034;28;20050;-77
2023/12/12 05:41:03;;;;;;;27.10;25.10;;;4.00;99.90;;;;;;5122852;28;20043;-77
2023/12/12 05:43:29;;;;;;;27.80;25.63;;;4.00;99.90;;;;;;5103504;28;20047;-77
2023/12/12 05:45:55;;;;;;;28.80;27.00;;;4.10;99.90;;;;;;5124595;28;20104;-77
2023/12/12 05:48:20;;;;;;;30.23;27.60;;;4.00;99.90;;;;;;5122301;28;20046;-77
2023/12/12 05:50:46;;;;;;;30.73;28.65;;;4.10;99.90;;;;;;5104912;28;20538;-77
2023/12/12 05:53:12;;;;;;;29.20;26.65;;;4.30;99.90;;;;;;5122989;28;20047;-77
2023/12/12 05:55:37;;;;;;;30.10;27.60;;;4.40;99.90;;;;;;5120634;28;20494;-77
2023/12/12 05:58:04;;;;;;;31.10;28.48;;;4.50;99.90;;;;;;5105274;28;20040;-78
2023/12/12 06:00:30;;;;;;;27.85;25.13;;;4.60;99.90;;;;;;5120750;28;20058;-78
2023/12/12 06:02:55;;;;;;;29.45;26.58;;;4.70;99.90;;;;;;5122776;28;20071;-78
2023/12/12 06:05:21;;;;;;;32.05;28.73;;;4.80;99.90;;;;;;5121657;28;20550;-77
2023/12/12 06:07:47;;;;;;;30.90;28.17;;;4.90;99.90;;;;;;5104734;28;20062;-77
2023/12/12 06:10:13;;;;;;;29.58;26.98;;;4.90;99.90;;;;;;5122221;28;20050;-77
2023/12/12 06:12:38;;;;;;;29.83;27.05;;;5.00;99.90;;;;;;5119596;28;20062;-77
2023/12/12 06:15:08;;;;;;;31.17;27.75;;;5.10;99.90;;;;;;5104258;28;20048;-76
2023/12/12 06:17:35;;;;;;;32.85;28.77;;;5.20;99.90;;;;;;5089513;28;20043;-76
2023/12/12 06:20:01;;;;;;;33.17;29.25;;;5.20;99.90;;;;;;5123903;28;20126;-76
2023/12/12 06:22:26;;;;;;;32.40;29.10;;;5.20;99.90;;;;;;5121231;28;20040;-77
2023/12/12 06:24:52;;;;;;;36.08;28.35;;;5.30;99.90;;;;;;5122815;28;20066;-77
2023/12/12 06:27:18;;;;;;;31.00;27.55;;;5.40;99.90;;;;;;5121843;28;20058;-77
2023/12/12 06:29:43;;;;;;;33.13;29.92;;;5.30;99.90;;;;;;5120975;28;20078;-77
2023/12/12 06:32:09;;;;;;;32.45;28.92;;;5.30;99.90;;;;;;5105031;28;20043;-79
2023/12/12 06:34:35;;;;;;;32.50;29.55;;;5.50;99.90;;;;;;5103042;28;20040;-77
2023/12/12 06:37:00;;;;;;;35.08;28.27;;;5.40;99.90;;;;;;5105076;28;20113;-77
2023/12/12 06:39:26;;;;;;;33.63;29.55;;;5.40;99.90;;;;;;5120464;28;20440;-77
2023/12/12 06:41:51;;;;;;;38.63;30.23;;;5.40;99.90;;;;;;5121596;28;20073;-77
2023/12/12 06:44:17;;;;;;;38.70;31.50;;;5.40;99.90;;;;;;5122716;28;20047;-76
2023/12/12 06:46:43;;;;;;;33.25;29.92;;;5.50;99.90;;;;;;5120041;28;20374;-76
2023/12/12 06:49:09;;;;;;;33.17;29.60;;;5.50;99.90;;;;;;5121880;28;20051;-77
2023/12/12 06:51:35;;;;;;;35.55;29.42;;;5.60;99.90;;;;;;5119455;28;20483;-76
2023/12/12 06:54:03;;;;;;;31.98;28.17;;;5.60;99.90;;;;;;5105064;28;20433;-77
2023/12/12 06:56:30;;;;;;;31.10;27.95;;;5.50;99.90;;;;;;5120063;28;20043;-77
2023/12/12 06:58:56;;;;;;;31.30;27.92;;;5.60;99.90;;;;;;5121568;28;20055;-76
2023/12/12 07:01:22;;;;;;;38.63;30.15;;;5.70;99.90;;;;;;5122654;28;20055;-77
2023/12/12 07:03:48;;;;;;;34.42;30.83;;;5.60;99.90;;;;;;5120156;28;20044;-76
2023/12/12 07:06:17;;;;;;;37.35;30.50;;;5.60;99.90;;;;;;5122934;28;20047;-76
2023/12/12 07:08:43;;;;;;;35.25;30.63;;;5.60;99.90;;;;;;5117404;28;20450;-77
2023/12/12 07:11:08;;;;;;;35.90;30.90;;;5.60;99.90;;;;;;5122247;28;20058;-77
2023/12/12 07:13:34;;;;;;;32.17;28.73;;;5.70;99.90;;;;;;5118185;28;20051;-77
2023/12/12 07:16:00;;;;;;;34.00;30.30;;;5.70;99.90;;;;;;5120250;28;20031;-76
2023/12/12 07:18:25;;;;;;;40.70;30.88;;;5.70;99.90;;;;;;5101108;28;20040;-76
2023/12/12 07:20:51;;;;;;;34.47;29.67;;;5.70;99.90;;;;;;5119599;28;20103;-77
2023/12/12 07:23:17;;;;;;;34.78;28.67;;;5.70;99.90;;;;;;5105982;28;20051;-76
2023/12/12 07:25:42;;;;;;;34.42;29.17;;;5.70;99.90;;;;;;5122441;28;20039;-77
2023/12/12 07:28:08;;;;;;;39.00;31.98;;;5.70;99.90;;;;;;5107262;28;20040;-76
2023/12/12 07:30:34;;;;;;;32.58;27.23;;;5.70;99.90;;;;;;5122882;28;20058;-76
2023/12/12 07:32:59;;;;;;;37.08;30.58;;;5.60;99.90;;;;;;5124374;28;20446;-75
2023/12/12 07:35:25;;;;;;;33.30;30.17;;;5.60;99.90;;;;;;5123256;28;20503;-75
2023/12/12 07:37:51;;;;;;;36.22;32.08;;;5.50;99.90;;;;;;5106763;28;20074;-76
2023/12/12 07:40:17;;;;;;;37.05;32.38;;;5.50;99.90;;;;;;5123830;28;20052;-75
2023/12/12 07:42:45;;;;;;;35.00;31.38;;;5.40;99.90;;;;;;5122306;28;20406;-75
2023/12/12 07:45:11;;;;;;;31.48;28.20;;;5.30;99.90;;;;;;5125430;28;20058;-76
2023/12/12 07:47:37;;;;;;;34.42;30.95;;;5.30;99.90;;;;;;5121082;28;20046;-77
2023/12/12 07:50:05;;;;;;;32.80;29.58;;;5.30;99.90;;;;;;5124389;28;20039;-76
2023/12/12 07:52:34;;;;;;;36.83;33.08;;;5.20;99.90;;;;;;5123674;28;20099;-76
2023/12/12 07:55:00;;;;;;;35.47;31.75;;;5.20;99.90;;;;;;5122591;28;20115;-78
2023/12/12 07:57:25;;;;;;;35.45;31.73;;;5.20;99.90;;;;;;5090893;28;20152;-76
2023/12/12 07:59:51;;;;;;;33.60;30.40;;;5.20;99.90;;;;;;5104771;28;20522;-77
2023/12/12 08:02:17;;;;;;;36.63;32.65;;;5.20;99.90;;;;;;5107040;28;20083;-76
2023/12/12 08:04:42;;;;;;;33.72;30.52;;;5.30;99.90;;;;;;5123418;28;20074;-77
2023/12/12 08:07:08;;;;;;;37.05;31.50;;;5.30;99.90;;;;;;5124009;28;20110;-77
2023/12/12 08:09:35;;;;;;;34.78;30.85;;;5.20;99.90;;;;;;5122940;27;20039;-77
2023/12/12 08:12:00;;;;;;;36.85;31.75;;;5.30;99.90;;;;;;5122728;28;20063;-76
2023/12/12 08:14:26;;;;;;;34.97;31.40;;;5.30;99.90;;;;;;5123642;28;20055;-75
2023/12/12 08:16:53;;;;;;;33.70;30.55;;;5.20;99.90;;;;;;5105112;28;20054;-76
2023/12/12 08:19:20;;;;;;;35.67;31.98;;;5.30;99.90;;;;;;5103876;28;20101;-76
2023/12/12 08:21:45;;;;;;;37.90;34.33;;;5.20;99.90;;;;;;5103225;28;20055;-76
2023/12/12 08:24:12;;;;;;;38.08;34.22;;;5.20;99.90;;;;;;5109192;28;20043;-76
2023/12/12 08:26:48;;;;;;;38.47;32.75;;;5.20;99.90;;;;;;5124022;28;20093;-75
2023/12/12 08:29:14;;;;;;;36.63;33.00;;;5.10;99.90;;;;;;5122894;28;20051;-75
2023/12/12 08:31:40;;;;;;;39.03;35.17;;;5.10;99.90;;;;;;5123585;28;20391;-76
2023/12/12 08:34:07;;;;;;;40.15;36.28;;;5.00;99.90;;;;;;5121861;28;20107;-78
2023/12/12 08:36:33;;;;;;;43.20;39.17;;;5.10;99.90;;;;;;5124295;28;20050;-78
2023/12/12 08:39:00;;;;;;;39.88;36.05;;;5.10;99.90;;;;;;5122574;28;20080;-79
2023/12/12 08:41:28;;;;;;;39.97;36.25;;;5.00;99.90;;;;;;5123851;28;20522;-79
2023/12/12 08:43:54;;;;;;;39.95;35.95;;;5.10;99.90;;;;;;5122650;28;20129;-79
2023/12/12 08:46:26;;;;;;;40.10;36.80;;;5.00;99.90;;;;;;5105157;28;20054;-79
2023/12/12 08:48:58;;;;;;;61.78;36.78;;;5.00;99.90;;;;;;5124483;27;20113;-79
2023/12/12 08:51:26;;;;;;;38.30;34.20;;;5.00;99.90;;;;;;5121390;28;20048;-80
2023/12/12 08:53:52;;;;;;;46.92;31.33;;;4.90;99.90;;;;;;5123402;28;20052;-79
2023/12/12 08:56:18;;;;;;;52.17;30.38;;;4.90;99.90;;;;;;5121618;28;20050;-79
2023/12/12 08:58:45;;;;;;;137.73;35.17;;;4.90;99.90;;;;;;5123247;28;20043;-79
2023/12/12 09:01:11;;;;;;;32.60;30.35;;;4.80;99.90;;;;;;5123378;27;20060;-79
2023/12/12 09:03:37;;;;;;;35.75;33.00;;;4.80;99.90;;;;;;5123171;28;20070;-79
2023/12/12 09:06:03;;;;;;;35.15;32.50;;;4.80;99.90;;;;;;5123429;28;20116;-79
2023/12/12 09:08:29;;;;;;;44.55;32.53;;;4.80;99.90;;;;;;5122272;28;20048;-80
2023/12/12 09:10:55;;;;;;;37.40;34.63;;;4.80;99.90;;;;;;5123101;28;20536;-80
2023/12/12 09:13:22;;;;;;;35.80;32.88;;;4.80;99.90;;;;;;5119914;28;20094;-80
2023/12/12 09:15:48;;;;;;;38.35;35.25;;;4.80;99.90;;;;;;5124028;28;20082;-80
2023/12/12 09:18:14;;;;;;;38.97;35.60;;;4.80;99.90;;;;;;5122500;28;20043;-79
2023/12/12 09:20:39;;;;;;;38.42;35.33;;;4.90;99.90;;;;;;5121720;28;20390;-79
2023/12/12 09:23:05;;;;;;;37.42;34.40;;;4.80;99.90;;;;;;5122163;28;20071;-80
2023/12/12 09:25:31;;;;;;;39.78;36.47;;;4.80;99.90;;;;;;5121562;28;20040;-80
2023/12/12 09:27:57;;;;;;;42.90;39.45;;;4.80;99.90;;;;;;5123043;28;20093;-80
2023/12/12 09:30:23;;;;;;;47.95;43.70;;;4.90;99.90;;;;;;5103375;28;20074;-80
2023/12/12 09:32:48;;;;;;;49.17;45.05;;;4.90;99.90;;;;;;5122525;28;20099;-80
2023/12/12 09:35:16;;;;;;;47.35;43.03;;;5.10;99.90;;;;;;5121717;28;20457;-80
2023/12/12 09:37:42;;;;;;;49.55;45.00;;;5.10;99.90;;;;;;5120184;28;20073;-80
2023/12/12 09:40:09;;;;;;;46.53;42.50;;;5.20;99.90;;;;;;5122690;28;20035;-80
2023/12/12 09:42:35;;;;;;;43.00;39.22;;;5.30;99.90;;;;;;5120265;28;20044;-80
2023/12/12 09:45:07;;;;;;;43.28;37.63;;;5.20;99.90;;;;;;5120414;28;20089;-80
2023/12/12 09:47:33;;;;;;;42.58;38.20;;;5.30;99.90;;;;;;5120875;28;20052;-80
2023/12/12 09:49:59;;;;;;;81.07;42.00;;;5.30;99.90;;;;;;5123198;28;20052;-80
2023/12/12 09:52:28;;;;;;;111.75;44.30;;;5.30;99.90;;;;;;5121628;28;20044;-80
2023/12/12 09:54:55;;;;;;;120.53;45.20;;;5.40;99.90;;;;;;5121465;28;20130;-80
2023/12/12 09:57:21;;;;;;;102.30;44.55;;;5.40;99.90;;;;;;5122818;28;20054;-80
2023/12/12 09:59:47;;;;;;;96.70;42.47;;;5.50;99.90;;;;;;5102758;28;20048;-80
2023/12/12 10:02:19;;;;;;;122.88;42.42;;;5.50;99.90;;;;;;5121370;28;20096;-80
2023/12/12 10:04:46;;;;;;;157.40;43.55;;;5.60;99.90;;;;;;5120003;28;20069;-80
2023/12/12 10:07:17;;;;;;;102.63;40.63;;;5.60;99.90;;;;;;5123555;28;20044;-80
2023/12/12 10:09:43;;;;;;;83.57;37.47;;;5.70;99.90;;;;;;5121783;28;20534;-80
2023/12/12 10:12:08;;;;;;;53.90;31.63;;;5.70;99.90;;;;;;5122170;28;20081;-80
2023/12/12 10:14:40;;;;;;;56.47;30.55;;;5.60;99.90;;;;;;5103966;28;20118;-80
2023/12/12 10:17:10;;;;;;;42.80;30.17;;;5.60;99.90;;;;;;5121361;28;20122;-80
2023/12/12 10:19:40;;;;;;;104.45;33.13;;;5.60;99.90;;;;;;5123984;28;20079;-80
2023/12/12 10:22:08;;;;;;;43.75;33.30;;;5.60;99.90;;;;;;5120330;28;20082;-80
2023/12/12 10:24:35;;;;;;;62.80;32.92;;;5.60;99.90;;;;;;5121785;28;20582;-80
2023/12/12 10:27:04;;;;;;;65.63;33.40;;;5.60;99.90;;;;;;5120907;28;20044;-79
2023/12/12 10:29:31;;;;;;;66.55;32.22;;;5.60;99.90;;;;;;5121199;28;20054;-80
2023/12/12 10:32:02;;;;;;;53.35;30.33;;;5.60;99.90;;;;;;5123307;28;20055;-80
2023/12/12 10:34:28;;;;;;;52.17;29.75;;;5.60;99.90;;;;;;5119834;28;20054;-80
2023/12/12 10:36:55;;;;;;;41.35;28.45;;;5.60;99.90;;;;;;5122478;28;20075;-80
2023/12/12 10:39:21;;;;;;;54.40;27.35;;;5.60;99.90;;;;;;5118915;28;20079;-80
2023/12/12 10:41:56;;;;;;;49.25;27.92;;;5.50;99.90;;;;;;5104420;28;20051;-80
2023/12/12 10:44:32;;;;;;;49.80;27.77;;;5.50;99.90;;;;;;5121227;28;20051;-79
2023/12/12 10:47:01;;;;;;;37.67;28.80;;;5.40;99.90;;;;;;5119597;28;20304;-79
2023/12/12 10:49:32;;;;;;;34.05;28.92;;;5.50;99.90;;;;;;5120875;28;20054;-79
2023/12/12 10:52:03;;;;;;;33.42;29.85;;;5.50;99.90;;;;;;5119524;28;20076;-79
2023/12/12 10:54:33;;;;;;;36.08;28.83;;;5.50;99.90;;;;;;5121243;28;20051;-80
2023/12/12 10:57:00;;;;;;;46.45;29.45;;;5.50;99.90;;;;;;5121245;28;20047;-79
2023/12/12 10:59:28;;;;;;;59.40;29.45;;;5.50;99.90;;;;;;5120978;28;20051;-79
2023/12/12 11:01:56;;;;;;;69.60;28.00;;;5.60;99.90;;;;;;5120741;28;20069;-79
2023/12/12 11:04:24;;;;;;;39.33;29.02;;;5.60;99.90;;;;;;5119146;28;20051;-80
2023/12/12 11:06:51;;;;;;;64.80;30.20;;;5.60;99.90;;;;;;5121286;28;20039;-80
2023/12/12 11:09:21;;;;;;;43.38;28.88;;;5.60;99.90;;;;;;5119963;28;20043;-80
2023/12/12 11:11:49;;;;;;;45.13;30.42;;;5.60;99.90;;;;;;5121793;28;20040;-79
2023/12/12 11:14:19;;;;;;;49.08;29.35;;;5.70;99.90;;;;;;5119591;28;20059;-80
2023/12/12 11:16:45;;;;;;;39.08;29.15;;;5.80;99.90;;;;;;5120282;28;20502;-79
2023/12/12 11:19:17;;;;;;;41.38;29.95;;;5.80;99.90;;;;;;5122691;28;20054;-80
2023/12/12 11:21:48;;;;;;;40.38;28.60;;;5.90;99.90;;;;;;5118871;28;20043;-80
2023/12/12 11:24:18;;;;;;;49.70;29.85;;;5.90;99.90;;;;;;5120637;28;20079;-80
2023/12/12 11:26:47;;;;;;;44.13;30.05;;;6.00;99.90;;;;;;5118176;28;20068;-80
2023/12/12 11:29:15;;;;;;;34.25;30.63;;;6.00;99.90;;;;;;5118694;28;20071;-80
2023/12/12 11:32:00;;;;;;;45.72;30.23;;;6.10;99.90;;;;;;5120719;28;20051;-82
2023/12/12 11:34:40;;;;;;;46.50;30.35;;;6.00;99.90;;;;;;5118961;28;20081;-80
2023/12/12 11:37:08;;;;;;;44.83;32.03;;;6.10;99.90;;;;;;5119908;28;20333;-80
2023/12/12 11:39:37;;;;;;;35.22;30.48;;;6.10;99.90;;;;;;5118626;28;20040;-80
2023/12/12 11:42:21;;;;;;;36.38;32.47;;;6.10;99.90;;;;;;5120037;28;20085;-81
2023/12/12 11:44:54;;;;;;;37.70;32.42;;;6.10;99.90;;;;;;5121574;28;20039;-81
2023/12/12 11:47:23;;;;;;;39.08;31.55;;;6.10;99.90;;;;;;5117773;28;20075;-82
2023/12/12 11:49:49;;;;;;;37.20;33.22;;;6.10;99.90;;;;;;5104112;28;20052;-81
2023/12/12 11:52:37;;;;;;;40.08;31.98;;;6.20;99.90;;;;;;5101402;28;20040;-80
2023/12/12 11:55:03;;;;;;;46.25;33.38;;;6.20;99.90;;;;;;5118368;28;20048;-80
2023/12/12 11:57:29;;;;;;;40.08;34.85;;;6.20;99.90;;;;;;5121441;28;20040;-80
2023/12/12 11:59:55;;;;;;;52.15;37.13;;;6.20;99.90;;;;;;5118687;28;20437;-80
2023/12/12 12:02:20;;;;;;;55.22;38.05;;;6.20;99.90;;;;;;5119505;28;20138;-80
2023/12/12 12:04:46;;;;;;;52.05;36.58;;;6.30;99.90;;;;;;5101226;28;20082;-80
2023/12/12 12:07:12;;;;;;;57.58;39.10;;;6.30;99.90;;;;;;5120911;28;20110;-80
2023/12/12 12:09:42;;;;;;;59.30;40.40;;;6.30;99.90;;;;;;5125478;28;20043;-80
2023/12/12 12:12:10;;;;;;;68.15;42.30;;;6.40;99.90;;;;;;5105821;28;20093;-81
2023/12/12 12:14:36;;;;;;;74.15;42.53;;;6.40;99.90;;;;;;5123435;28;20058;-81
2023/12/12 12:17:02;;;;;;;57.75;41.88;;;6.40;99.90;;;;;;5105626;28;20368;-81
2023/12/12 12:19:33;;;;;;;67.00;42.90;;;6.40;99.90;;;;;;5124639;28;20054;-81
2023/12/12 12:22:02;;;;;;;54.92;40.42;;;6.50;99.90;;;;;;5122990;28;20032;-80
2023/12/12 12:24:29;;;;;;;60.30;41.10;;;6.50;99.90;;;;;;5123783;28;20585;-81
2023/12/12 12:26:56;;;;;;;62.50;42.35;;;6.60;99.90;;;;;;5123424;28;20074;-80
2023/12/12 12:29:22;;;;;;;58.90;40.15;;;6.60;99.90;;;;;;5122470;28;20047;-81
2023/12/12 12:31:47;;;;;;;53.80;40.00;;;6.70;99.90;;;;;;5122505;28;20052;-80
2023/12/12 12:34:21;;;;;;;53.13;40.53;;;6.70;99.90;;;;;;5120100;28;20052;-79
2023/12/12 12:36:46;;;;;;;52.95;40.00;;;6.80;99.90;;;;;;5124217;28;20086;-80